sensor_id;sensor_type;location;lat;lon;timestamp;pressure;altitude;pressure_sealevel;temperature;humidity
59939;BME280;45801;51.810;19.444;2023-03-13T00:00:52;98468.83;;;3.92;66.29
59939;BME280;45801;51.810;19.444;2023-03-13T00:03:19;98466.23;;;3.92;65.94
59939;BME280;45801;51.810;19.444;2023-03-13T00:05:46;98461.70;;;3.88;66.13
59939;BME280;45801;51.810;19.444;2023-03-13T00:08:12;98452.52;;;3.85;66.14
59939;BME280;45801;51.810;19.444;2023-03-13T00:10:40;98449.46;;;3.83;66.52
59939;BME280;45801;51.810;19.444;2023-03-13T00:13:07;98446.67;;;3.80;66.75
59939;BME280;45801;51.810;19.444;2023-03-13T00:15:35;98446.30;;;3.76;67.00
59939;BME280;45801;51.810;19.444;2023-03-13T00:18:01;98440.84;;;3.75;66.93
59939;BME280;45801;51.810;19.444;2023-03-13T00:20:28;98441.92;;;3.72;66.75
59939;BME280;45801;51.810;19.444;2023-03-13T00:22:55;98440.59;;;3.70;66.63
59939;BME280;45801;51.810;19.444;2023-03-13T00:25:21;98440.30;;;3.71;67.08
59939;BME280;45801;51.810;19.444;2023-03-13T00:27:48;98445.65;;;3.74;66.39
59939;BME280;45801;51.810;19.444;2023-03-13T00:30:15;98444.85;;;3.72;66.77
59939;BME280;45801;51.810;19.444;2023-03-13T00:32:43;98438.69;;;3.70;66.89
59939;BME280;45801;51.810;19.444;2023-03-13T00:35:14;98447.84;;;3.69;67.08
59939;BME280;45801;51.810;19.444;2023-03-13T00:37:41;98449.42;;;3.70;67.08
59939;BME280;45801;51.810;19.444;2023-03-13T00:40:09;98450.04;;;3.72;67.13
59939;BME280;45801;51.810;19.444;2023-03-13T00:42:35;98441.52;;;3.74;67.00
59939;BME280;45801;51.810;19.444;2023-03-13T00:45:02;98440.06;;;3.73;67.20
59939;BME280;45801;51.810;19.444;2023-03-13T00:47:29;98437.09;;;3.73;67.57
59939;BME280;45801;51.810;19.444;2023-03-13T00:49:55;98426.52;;;3.69;67.58
59939;BME280;45801;51.810;19.444;2023-03-13T00:52:22;98417.64;;;3.65;67.51
59939;BME280;45801;51.810;19.444;2023-03-13T00:54:50;98417.20;;;3.64;67.73
59939;BME280;45801;51.810;19.444;2023-03-13T00:57:16;98416.25;;;3.59;68.17
59939;BME280;45801;51.810;19.444;2023-03-13T00:59:43;98414.02;;;3.57;68.04
59939;BME280;45801;51.810;19.444;2023-03-13T01:02:09;98418.41;;;3.55;67.95
59939;BME280;45801;51.810;19.444;2023-03-13T01:04:36;98416.66;;;3.48;68.38
59939;BME280;45801;51.810;19.444;2023-03-13T01:07:02;98410.72;;;3.50;67.45
59939;BME280;45801;51.810;19.444;2023-03-13T01:09:28;98410.38;;;3.53;67.97
59939;BME280;45801;51.810;19.444;2023-03-13T01:11:55;98410.89;;;3.53;68.31
59939;BME280;45801;51.810;19.444;2023-03-13T01:14:21;98406.50;;;3.52;68.15
59939;BME280;45801;51.810;19.444;2023-03-13T01:16:48;98405.17;;;3.53;68.39
59939;BME280;45801;51.810;19.444;2023-03-13T01:19:15;98403.71;;;3.52;68.59
59939;BME280;45801;51.810;19.444;2023-03-13T01:21:43;98402.02;;;3.53;68.72
59939;BME280;45801;51.810;19.444;2023-03-13T01:24:10;98403.07;;;3.53;69.11
59939;BME280;45801;51.810;19.444;2023-03-13T01:26:37;98403.65;;;3.53;69.44
59939;BME280;45801;51.810;19.444;2023-03-13T01:29:03;98400.89;;;3.54;69.22
59939;BME280;45801;51.810;19.444;2023-03-13T01:31:33;98406.80;;;3.51;69.26
59939;BME280;45801;51.810;19.444;2023-03-13T01:34:03;98404.49;;;3.54;69.06
59939;BME280;45801;51.810;19.444;2023-03-13T01:36:30;98404.73;;;3.58;68.79
59939;BME280;45801;51.810;19.444;2023-03-13T01:38:57;98402.77;;;3.84;68.76
59939;BME280;45801;51.810;19.444;2023-03-13T01:41:26;98389.70;;;4.14;68.64
59939;BME280;45801;51.810;19.444;2023-03-13T01:43:54;98382.75;;;4.17;68.37
59939;BME280;45801;51.810;19.444;2023-03-13T01:46:25;98382.98;;;4.12;68.52
59939;BME280;45801;51.810;19.444;2023-03-13T01:49:06;98378.48;;;4.09;68.43
59939;BME280;45801;51.810;19.444;2023-03-13T01:54:13;98375.00;;;3.90;69.39
59939;BME280;45801;51.810;19.444;2023-03-13T01:56:50;98373.87;;;3.75;70.17
59939;BME280;45801;51.810;19.444;2023-03-13T01:59:26;98370.61;;;3.70;69.54
59939;BME280;45801;51.810;19.444;2023-03-13T02:01:58;98376.50;;;3.70;69.51
59939;BME280;45801;51.810;19.444;2023-03-13T02:04:29;98378.96;;;3.74;69.68
59939;BME280;45801;51.810;19.444;2023-03-13T02:07:00;98377.00;;;3.76;69.67
59939;BME280;45801;51.810;19.444;2023-03-13T02:09:30;98373.33;;;3.75;70.19
59939;BME280;45801;51.810;19.444;2023-03-13T02:12:03;98373.59;;;3.71;70.88
59939;BME280;45801;51.810;19.444;2023-03-13T02:14:34;98379.60;;;3.63;70.85
59939;BME280;45801;51.810;19.444;2023-03-13T02:17:04;98379.16;;;3.65;70.31
59939;BME280;45801;51.810;19.444;2023-03-13T02:19:46;98375.34;;;3.67;70.31
59939;BME280;45801;51.810;19.444;2023-03-13T02:22:41;98379.67;;;3.62;71.22
59939;BME280;45801;51.810;19.444;2023-03-13T02:25:11;98374.96;;;3.64;70.46
59939;BME280;45801;51.810;19.444;2023-03-13T02:27:42;98376.23;;;3.68;70.70
59939;BME280;45801;51.810;19.444;2023-03-13T02:30:13;98381.45;;;3.72;70.91
59939;BME280;45801;51.810;19.444;2023-03-13T02:32:40;98384.35;;;3.71;71.22
59939;BME280;45801;51.810;19.444;2023-03-13T02:35:11;98388.45;;;3.67;71.12
59939;BME280;45801;51.810;19.444;2023-03-13T02:37:41;98387.56;;;3.69;71.33
59939;BME280;45801;51.810;19.444;2023-03-13T02:40:11;98390.45;;;3.72;71.33
59939;BME280;45801;51.810;19.444;2023-03-13T02:42:44;98392.11;;;3.73;71.38
59939;BME280;45801;51.810;19.444;2023-03-13T02:45:15;98393.48;;;3.76;71.44
59939;BME280;45801;51.810;19.444;2023-03-13T02:47:43;98391.74;;;3.70;72.46
59939;BME280;45801;51.810;19.444;2023-03-13T02:50:11;98388.66;;;3.70;72.21
59939;BME280;45801;51.810;19.444;2023-03-13T02:52:50;98387.30;;;3.74;71.88
59939;BME280;45801;51.810;19.444;2023-03-13T02:55:23;98384.09;;;3.72;72.71
59939;BME280;45801;51.810;19.444;2023-03-13T02:57:52;98386.59;;;3.74;72.09
59939;BME280;45801;51.810;19.444;2023-03-13T03:00:19;98389.42;;;3.78;71.66
59939;BME280;45801;51.810;19.444;2023-03-13T03:02:46;98393.29;;;3.82;72.07
59939;BME280;45801;51.810;19.444;2023-03-13T03:05:12;98398.30;;;3.85;72.18
59939;BME280;45801;51.810;19.444;2023-03-13T03:07:39;98395.89;;;3.88;71.59
59939;BME280;45801;51.810;19.444;2023-03-13T03:10:06;98393.93;;;3.87;72.34
59939;BME280;45801;51.810;19.444;2023-03-13T03:12:32;98393.47;;;3.88;71.79
59939;BME280;45801;51.810;19.444;2023-03-13T03:14:59;98396.48;;;3.93;72.11
59939;BME280;45801;51.810;19.444;2023-03-13T03:17:25;98395.60;;;3.86;73.23
59939;BME280;45801;51.810;19.444;2023-03-13T03:19:52;98392.38;;;3.81;73.32
59939;BME280;45801;51.810;19.444;2023-03-13T03:22:18;98397.94;;;3.84;72.97
59939;BME280;45801;51.810;19.444;2023-03-13T03:24:44;98398.01;;;3.86;73.29
59939;BME280;45801;51.810;19.444;2023-03-13T03:27:11;98391.17;;;3.91;72.54
59939;BME280;45801;51.810;19.444;2023-03-13T03:29:39;98394.96;;;3.81;74.72
59939;BME280;45801;51.810;19.444;2023-03-13T03:32:05;98392.92;;;3.79;74.06
59939;BME280;45801;51.810;19.444;2023-03-13T03:34:32;98387.92;;;3.82;73.91
59939;BME280;45801;51.810;19.444;2023-03-13T03:36:58;98386.91;;;3.82;74.32
59939;BME280;45801;51.810;19.444;2023-03-13T03:39:25;98385.14;;;3.85;73.80
59939;BME280;45801;51.810;19.444;2023-03-13T03:41:51;98385.31;;;3.85;75.07
59939;BME280;45801;51.810;19.444;2023-03-13T03:44:18;98385.88;;;3.83;75.28
59939;BME280;45801;51.810;19.444;2023-03-13T03:46:44;98387.45;;;3.89;73.81
59939;BME280;45801;51.810;19.444;2023-03-13T03:49:11;98382.40;;;3.95;74.21
59939;BME280;45801;51.810;19.444;2023-03-13T03:51:37;98379.10;;;4.01;73.66
59939;BME280;45801;51.810;19.444;2023-03-13T03:54:03;98374.76;;;4.07;73.52
59939;BME280;45801;51.810;19.444;2023-03-13T03:56:30;98372.56;;;4.15;73.20
59939;BME280;45801;51.810;19.444;2023-03-13T03:58:57;98372.64;;;4.19;73.96
59939;BME280;45801;51.810;19.444;2023-03-13T04:01:23;98372.23;;;4.21;74.19
59939;BME280;45801;51.810;19.444;2023-03-13T04:03:50;98365.86;;;4.22;74.17
59939;BME280;45801;51.810;19.444;2023-03-13T04:06:16;98361.41;;;4.27;73.86
59939;BME280;45801;51.810;19.444;2023-03-13T04:08:42;98360.45;;;4.31;73.62
59939;BME280;45801;51.810;19.444;2023-03-13T04:11:10;98355.14;;;4.36;73.93
59939;BME280;45801;51.810;19.444;2023-03-13T04:13:36;98356.00;;;4.39;73.80
59939;BME280;45801;51.810;19.444;2023-03-13T04:16:07;98353.55;;;4.41;73.92
59939;BME280;45801;51.810;19.444;2023-03-13T04:18:34;98356.46;;;4.48;73.63
59939;BME280;45801;51.810;19.444;2023-03-13T04:21:01;98360.66;;;4.52;73.56
59939;BME280;45801;51.810;19.444;2023-03-13T04:23:28;98363.05;;;4.48;75.16
59939;BME280;45801;51.810;19.444;2023-03-13T04:25:54;98361.58;;;4.42;75.62
59939;BME280;45801;51.810;19.444;2023-03-13T04:28:21;98358.36;;;4.44;74.71
59939;BME280;45801;51.810;19.444;2023-03-13T04:30:47;98355.17;;;4.46;74.38
59939;BME280;45801;51.810;19.444;2023-03-13T04:33:15;98357.04;;;4.49;74.33
59939;BME280;45801;51.810;19.444;2023-03-13T04:35:41;98355.73;;;4.43;75.58
59939;BME280;45801;51.810;19.444;2023-03-13T04:38:07;98354.92;;;4.44;75.63
59939;BME280;45801;51.810;19.444;2023-03-13T04:40:34;98354.37;;;4.44;76.48
59939;BME280;45801;51.810;19.444;2023-03-13T04:43:03;98353.02;;;4.45;76.75
59939;BME280;45801;51.810;19.444;2023-03-13T04:45:29;98353.17;;;4.48;76.76
59939;BME280;45801;51.810;19.444;2023-03-13T04:47:56;98352.67;;;4.48;75.97
59939;BME280;45801;51.810;19.444;2023-03-13T04:50:22;98356.43;;;4.47;76.42
59939;BME280;45801;51.810;19.444;2023-03-13T04:52:49;98358.65;;;4.46;77.61
59939;BME280;45801;51.810;19.444;2023-03-13T04:55:18;98356.78;;;4.50;77.02
59939;BME280;45801;51.810;19.444;2023-03-13T04:57:44;98353.37;;;4.51;77.89
59939;BME280;45801;51.810;19.444;2023-03-13T05:00:11;98357.27;;;4.53;78.01
59939;BME280;45801;51.810;19.444;2023-03-13T05:02:37;98352.99;;;4.54;77.33
59939;BME280;45801;51.810;19.444;2023-03-13T05:05:04;98351.37;;;4.60;77.20
59939;BME280;45801;51.810;19.444;2023-03-13T05:07:31;98348.91;;;4.62;78.01
59939;BME280;45801;51.810;19.444;2023-03-13T05:09:57;98345.50;;;4.67;77.24
59939;BME280;45801;51.810;19.444;2023-03-13T05:12:24;98350.25;;;4.68;77.91
59939;BME280;45801;51.810;19.444;2023-03-13T05:14:51;98341.77;;;4.68;77.84
59939;BME280;45801;51.810;19.444;2023-03-13T05:17:19;98340.98;;;4.63;78.93
59939;BME280;45801;51.810;19.444;2023-03-13T05:19:45;98334.12;;;4.65;78.55
59939;BME280;45801;51.810;19.444;2023-03-13T05:22:12;98329.76;;;4.68;78.04
59939;BME280;45801;51.810;19.444;2023-03-13T05:24:38;98326.33;;;4.68;78.06
59939;BME280;45801;51.810;19.444;2023-03-13T05:27:05;98324.19;;;4.70;78.16
59939;BME280;45801;51.810;19.444;2023-03-13T05:29:31;98327.80;;;4.73;78.02
59939;BME280;45801;51.810;19.444;2023-03-13T05:31:57;98326.34;;;4.72;78.69
59939;BME280;45801;51.810;19.444;2023-03-13T05:34:24;98321.37;;;4.76;78.35
59939;BME280;45801;51.810;19.444;2023-03-13T05:36:51;98316.20;;;4.81;78.84
59939;BME280;45801;51.810;19.444;2023-03-13T05:39:18;98309.83;;;4.85;78.34
59939;BME280;45801;51.810;19.444;2023-03-13T05:41:44;98305.46;;;4.91;77.72
59939;BME280;45801;51.810;19.444;2023-03-13T05:44:11;98299.83;;;4.97;77.30
59939;BME280;45801;51.810;19.444;2023-03-13T05:46:37;98295.64;;;5.03;76.74
59939;BME280;45801;51.810;19.444;2023-03-13T05:49:04;98302.36;;;5.09;77.05
59939;BME280;45801;51.810;19.444;2023-03-13T05:51:30;98304.53;;;5.14;76.64
59939;BME280;45801;51.810;19.444;2023-03-13T05:53:57;98304.72;;;5.18;76.76
59939;BME280;45801;51.810;19.444;2023-03-13T05:56:23;98307.39;;;5.23;76.52
59939;BME280;45801;51.810;19.444;2023-03-13T05:58:50;98309.31;;;5.27;76.40
59939;BME280;45801;51.810;19.444;2023-03-13T06:01:16;98307.56;;;5.27;76.82
59939;BME280;45801;51.810;19.444;2023-03-13T06:03:43;98305.14;;;5.27;76.96
59939;BME280;45801;51.810;19.444;2023-03-13T06:06:09;98302.30;;;5.29;76.86
59939;BME280;45801;51.810;19.444;2023-03-13T06:08:36;98304.52;;;5.24;78.04
59939;BME280;45801;51.810;19.444;2023-03-13T06:11:02;98302.73;;;5.24;78.05
59939;BME280;45801;51.810;19.444;2023-03-13T06:13:29;98299.39;;;5.23;78.12
59939;BME280;45801;51.810;19.444;2023-03-13T06:15:57;98299.62;;;5.24;77.88
59939;BME280;45801;51.810;19.444;2023-03-13T06:18:24;98299.72;;;5.29;77.22
59939;BME280;45801;51.810;19.444;2023-03-13T06:21:02;98298.00;;;5.37;76.99
59939;BME280;45801;51.810;19.444;2023-03-13T06:23:29;98292.27;;;5.44;76.49
59939;BME280;45801;51.810;19.444;2023-03-13T06:25:55;98292.86;;;5.53;76.65
59939;BME280;45801;51.810;19.444;2023-03-13T06:28:22;98296.06;;;5.58;76.86
59939;BME280;45801;51.810;19.444;2023-03-13T06:30:49;98296.09;;;5.62;76.50
59939;BME280;45801;51.810;19.444;2023-03-13T06:33:15;98289.33;;;5.70;76.29
59939;BME280;45801;51.810;19.444;2023-03-13T06:35:43;98287.20;;;5.77;76.17
59939;BME280;45801;51.810;19.444;2023-03-13T06:38:09;98283.58;;;5.81;76.32
59939;BME280;45801;51.810;19.444;2023-03-13T06:40:37;98284.38;;;5.79;77.08
59939;BME280;45801;51.810;19.444;2023-03-13T06:43:04;98279.70;;;5.80;77.20
59939;BME280;45801;51.810;19.444;2023-03-13T06:45:30;98274.45;;;5.82;76.25
59939;BME280;45801;51.810;19.444;2023-03-13T06:47:56;98274.99;;;5.79;76.76
59939;BME280;45801;51.810;19.444;2023-03-13T06:50:23;98273.66;;;5.84;76.42
59939;BME280;45801;51.810;19.444;2023-03-13T06:52:50;98274.14;;;5.91;76.49
59939;BME280;45801;51.810;19.444;2023-03-13T06:55:18;98278.08;;;5.94;77.19
59939;BME280;45801;51.810;19.444;2023-03-13T06:57:51;98279.63;;;5.89;77.87
59939;BME280;45801;51.810;19.444;2023-03-13T07:00:18;98280.60;;;5.84;78.04
59939;BME280;45801;51.810;19.444;2023-03-13T07:02:45;98277.17;;;5.85;77.39
59939;BME280;45801;51.810;19.444;2023-03-13T07:05:23;98281.85;;;5.85;77.89
59939;BME280;45801;51.810;19.444;2023-03-13T07:07:49;98285.44;;;5.84;78.07
59939;BME280;45801;51.810;19.444;2023-03-13T07:10:16;98285.70;;;5.86;77.89
59939;BME280;45801;51.810;19.444;2023-03-13T07:12:42;98289.19;;;5.85;78.58
59939;BME280;45801;51.810;19.444;2023-03-13T07:15:10;98287.44;;;5.89;78.52
59939;BME280;45801;51.810;19.444;2023-03-13T07:17:36;98288.95;;;5.92;78.41
59939;BME280;45801;51.810;19.444;2023-03-13T07:20:03;98290.67;;;5.98;78.07
59939;BME280;45801;51.810;19.444;2023-03-13T07:22:31;98287.41;;;6.04;77.85
59939;BME280;45801;51.810;19.444;2023-03-13T07:24:58;98285.73;;;6.04;78.06
59939;BME280;45801;51.810;19.444;2023-03-13T07:27:24;98282.61;;;6.08;78.06
59939;BME280;45801;51.810;19.444;2023-03-13T07:29:51;98276.48;;;6.12;78.71
59939;BME280;45801;51.810;19.444;2023-03-13T07:32:17;98270.79;;;6.20;78.00
59939;BME280;45801;51.810;19.444;2023-03-13T07:34:44;98272.44;;;6.26;78.00
59939;BME280;45801;51.810;19.444;2023-03-13T07:37:11;98262.84;;;6.33;77.29
59939;BME280;45801;51.810;19.444;2023-03-13T07:39:37;98259.89;;;6.37;78.00
59939;BME280;45801;51.810;19.444;2023-03-13T07:42:16;98257.62;;;6.41;77.65
59939;BME280;45801;51.810;19.444;2023-03-13T07:44:42;98257.67;;;6.46;77.27
59939;BME280;45801;51.810;19.444;2023-03-13T07:47:09;98252.71;;;6.48;77.54
59939;BME280;45801;51.810;19.444;2023-03-13T07:49:35;98242.22;;;6.51;77.65
59939;BME280;45801;51.810;19.444;2023-03-13T07:52:06;98241.58;;;6.60;76.91
59939;BME280;45801;51.810;19.444;2023-03-13T07:54:32;98242.38;;;6.59;77.69
59939;BME280;45801;51.810;19.444;2023-03-13T07:57:00;98239.20;;;6.66;76.88
59939;BME280;45801;51.810;19.444;2023-03-13T07:59:27;98232.84;;;6.71;77.38
59939;BME280;45801;51.810;19.444;2023-03-13T08:01:54;98228.19;;;6.77;77.48
59939;BME280;45801;51.810;19.444;2023-03-13T08:04:21;98215.76;;;6.83;77.16
59939;BME280;45801;51.810;19.444;2023-03-13T08:06:47;98212.63;;;6.88;77.05
59939;BME280;45801;51.810;19.444;2023-03-13T08:09:14;98218.52;;;6.87;77.28
59939;BME280;45801;51.810;19.444;2023-03-13T08:11:40;98221.79;;;6.86;77.10
59939;BME280;45801;51.810;19.444;2023-03-13T08:14:07;98220.10;;;6.92;76.81
59939;BME280;45801;51.810;19.444;2023-03-13T08:16:34;98219.20;;;7.00;76.69
59939;BME280;45801;51.810;19.444;2023-03-13T08:19:03;98210.02;;;7.09;76.35
59939;BME280;45801;51.810;19.444;2023-03-13T08:21:33;98202.09;;;7.20;76.37
59939;BME280;45801;51.810;19.444;2023-03-13T08:24:03;98196.88;;;7.29;76.30
59939;BME280;45801;51.810;19.444;2023-03-13T08:26:32;98194.80;;;7.38;75.73
59939;BME280;45801;51.810;19.444;2023-03-13T08:29:01;98201.13;;;7.49;75.59
59939;BME280;45801;51.810;19.444;2023-03-13T08:31:41;98191.63;;;7.50;75.51
59939;BME280;45801;51.810;19.444;2023-03-13T08:34:10;98187.13;;;7.56;75.14
59939;BME280;45801;51.810;19.444;2023-03-13T08:36:38;98184.84;;;7.60;75.49
59939;BME280;45801;51.810;19.444;2023-03-13T08:39:11;98181.46;;;7.68;75.24
59939;BME280;45801;51.810;19.444;2023-03-13T08:41:38;98180.25;;;7.72;74.82
59939;BME280;45801;51.810;19.444;2023-03-13T08:44:07;98179.06;;;7.78;74.49
59939;BME280;45801;51.810;19.444;2023-03-13T08:46:36;98184.55;;;7.81;74.03
59939;BME280;45801;51.810;19.444;2023-03-13T08:49:04;98179.13;;;7.89;74.02
59939;BME280;45801;51.810;19.444;2023-03-13T08:51:32;98174.31;;;7.96;73.55
59939;BME280;45801;51.810;19.444;2023-03-13T08:53:59;98168.98;;;8.03;73.60
59939;BME280;45801;51.810;19.444;2023-03-13T08:56:27;98166.77;;;8.09;73.37
59939;BME280;45801;51.810;19.444;2023-03-13T08:58:58;98158.95;;;8.15;73.16
59939;BME280;45801;51.810;19.444;2023-03-13T09:01:31;98157.89;;;8.20;72.81
59939;BME280;45801;51.810;19.444;2023-03-13T09:03:58;98155.09;;;8.19;72.54
59939;BME280;45801;51.810;19.444;2023-03-13T09:06:25;98150.04;;;8.25;72.66
59939;BME280;45801;51.810;19.444;2023-03-13T09:08:52;98151.61;;;8.30;72.54
59939;BME280;45801;51.810;19.444;2023-03-13T09:11:19;98148.09;;;8.34;72.33
59939;BME280;45801;51.810;19.444;2023-03-13T09:13:48;98145.23;;;8.37;72.11
59939;BME280;45801;51.810;19.444;2023-03-13T09:16:20;98139.85;;;8.43;72.27
59939;BME280;45801;51.810;19.444;2023-03-13T09:18:47;98141.84;;;8.44;72.14
59939;BME280;45801;51.810;19.444;2023-03-13T09:21:22;98137.30;;;8.49;71.97
59939;BME280;45801;51.810;19.444;2023-03-13T09:23:50;98133.41;;;8.58;72.00
59939;BME280;45801;51.810;19.444;2023-03-13T09:26:18;98127.78;;;8.67;71.69
59939;BME280;45801;51.810;19.444;2023-03-13T09:28:45;98123.56;;;8.77;71.64
59939;BME280;45801;51.810;19.444;2023-03-13T09:31:14;98124.36;;;8.85;71.22
59939;BME280;45801;51.810;19.444;2023-03-13T09:33:42;98125.63;;;8.92;70.79
59939;BME280;45801;51.810;19.444;2023-03-13T09:36:10;98125.64;;;8.98;70.60
59939;BME280;45801;51.810;19.444;2023-03-13T09:38:37;98134.64;;;9.02;70.03
59939;BME280;45801;51.810;19.444;2023-03-13T09:46:36;98127.30;;;9.12;69.97
59939;BME280;45801;51.810;19.444;2023-03-13T09:49:21;98128.48;;;9.23;69.60
59939;BME280;45801;51.810;19.444;2023-03-13T09:51:58;98125.29;;;9.26;68.94
59939;BME280;45801;51.810;19.444;2023-03-13T09:54:56;98115.06;;;9.35;68.79
59939;BME280;45801;51.810;19.444;2023-03-13T09:57:38;98109.67;;;9.42;68.07
59939;BME280;45801;51.810;19.444;2023-03-13T10:00:31;98098.49;;;9.48;68.13
59939;BME280;45801;51.810;19.444;2023-03-13T10:03:02;98098.69;;;9.55;67.46
59939;BME280;45801;51.810;19.444;2023-03-13T10:05:31;98092.53;;;9.60;67.52
59939;BME280;45801;51.810;19.444;2023-03-13T10:10:54;98077.29;;;9.71;67.54
59939;BME280;45801;51.810;19.444;2023-03-13T10:13:36;98073.59;;;9.76;66.76
59939;BME280;45801;51.810;19.444;2023-03-13T10:16:20;98068.80;;;9.80;66.48
59939;BME280;45801;51.810;19.444;2023-03-13T10:18:52;98066.02;;;9.86;66.94
59939;BME280;45801;51.810;19.444;2023-03-13T10:21:22;98062.10;;;9.91;66.35
59939;BME280;45801;51.810;19.444;2023-03-13T10:24:01;98055.11;;;9.91;65.88
59939;BME280;45801;51.810;19.444;2023-03-13T10:26:35;98054.35;;;9.89;65.70
59939;BME280;45801;51.810;19.444;2023-03-13T10:31:38;98037.42;;;9.90;65.59
59939;BME280;45801;51.810;19.444;2023-03-13T10:34:10;98032.67;;;9.89;65.59
59939;BME280;45801;51.810;19.444;2023-03-13T10:36:48;98036.11;;;9.87;65.31
59939;BME280;45801;51.810;19.444;2023-03-13T10:39:18;98029.20;;;9.90;65.65
59939;BME280;45801;51.810;19.444;2023-03-13T10:41:47;98020.14;;;9.92;65.34
59939;BME280;45801;51.810;19.444;2023-03-13T10:44:16;98022.77;;;9.92;64.79
59939;BME280;45801;51.810;19.444;2023-03-13T10:46:46;98017.22;;;9.94;64.92
59939;BME280;45801;51.810;19.444;2023-03-13T10:49:20;98010.50;;;9.98;64.65
59939;BME280;45801;51.810;19.444;2023-03-13T10:52:11;98004.90;;;10.04;64.67
59939;BME280;45801;51.810;19.444;2023-03-13T10:54:38;98004.48;;;10.08;64.50
59939;BME280;45801;51.810;19.444;2023-03-13T10:59:46;97983.45;;;10.15;63.31
59939;BME280;45801;51.810;19.444;2023-03-13T11:02:21;97976.03;;;10.18;63.66
59939;BME280;45801;51.810;19.444;2023-03-13T11:04:49;97975.64;;;10.23;64.07
59939;BME280;45801;51.810;19.444;2023-03-13T11:07:25;97968.91;;;10.28;63.74
59939;BME280;45801;51.810;19.444;2023-03-13T11:12:33;97955.55;;;10.32;62.85
59939;BME280;45801;51.810;19.444;2023-03-13T11:15:00;97948.29;;;10.35;63.03
59939;BME280;45801;51.810;19.444;2023-03-13T11:17:35;97944.19;;;10.39;63.55
59939;BME280;45801;51.810;19.444;2023-03-13T11:20:25;97939.36;;;10.42;63.72
59939;BME280;45801;51.810;19.444;2023-03-13T11:25:31;97935.11;;;10.48;64.02
59939;BME280;45801;51.810;19.444;2023-03-13T11:31:08;97934.62;;;10.41;63.08
59939;BME280;45801;51.810;19.444;2023-03-13T11:33:48;97940.29;;;10.37;63.29
59939;BME280;45801;51.810;19.444;2023-03-13T11:36:32;97940.10;;;10.30;63.21
59939;BME280;45801;51.810;19.444;2023-03-13T11:39:22;97939.48;;;10.26;63.52
59939;BME280;45801;51.810;19.444;2023-03-13T11:47:27;97925.98;;;10.18;65.10
59939;BME280;45801;51.810;19.444;2023-03-13T12:01:07;97895.05;;;10.12;67.87
59939;BME280;45801;51.810;19.444;2023-03-13T12:06:30;97882.67;;;10.14;67.48
59939;BME280;45801;51.810;19.444;2023-03-13T12:11:30;97886.37;;;10.15;68.45
59939;BME280;45801;51.810;19.444;2023-03-13T12:14:02;97889.84;;;10.14;68.93
59939;BME280;45801;51.810;19.444;2023-03-13T12:17:00;97885.71;;;10.17;68.52
59939;BME280;45801;51.810;19.444;2023-03-13T12:19:49;97884.29;;;10.16;69.80
59939;BME280;45801;51.810;19.444;2023-03-13T12:22:23;97886.18;;;10.14;69.97
59939;BME280;45801;51.810;19.444;2023-03-13T12:24:57;97887.07;;;10.15;69.35
59939;BME280;45801;51.810;19.444;2023-03-13T12:27:32;97881.30;;;10.15;69.47
59939;BME280;45801;51.810;19.444;2023-03-13T12:30:26;97877.05;;;10.13;70.43
59939;BME280;45801;51.810;19.444;2023-03-13T12:33:15;97877.98;;;10.07;71.11
59939;BME280;45801;51.810;19.444;2023-03-13T12:35:48;97868.42;;;10.03;71.26
59939;BME280;45801;51.810;19.444;2023-03-13T12:38:22;97859.55;;;9.91;73.06
59939;BME280;45801;51.810;19.444;2023-03-13T12:43:38;97850.17;;;9.85;73.26
59939;BME280;45801;51.810;19.444;2023-03-13T12:46:25;97843.73;;;9.87;72.79
59939;BME280;45801;51.810;19.444;2023-03-13T12:52:38;97829.70;;;9.93;72.44
59939;BME280;45801;51.810;19.444;2023-03-13T12:55:40;97815.73;;;9.94;72.34
59939;BME280;45801;51.810;19.444;2023-03-13T12:58:25;97814.73;;;9.96;72.35
59939;BME280;45801;51.810;19.444;2023-03-13T13:00:55;97813.05;;;9.99;72.88
59939;BME280;45801;51.810;19.444;2023-03-13T13:03:36;97806.97;;;10.00;73.03
59939;BME280;45801;51.810;19.444;2023-03-13T13:06:12;97806.14;;;10.03;72.88
59939;BME280;45801;51.810;19.444;2023-03-13T13:09:07;97808.25;;;10.03;73.24
59939;BME280;45801;51.810;19.444;2023-03-13T13:16:44;97806.98;;;10.01;73.03
59939;BME280;45801;51.810;19.444;2023-03-13T13:24:57;97798.60;;;10.10;71.87
59939;BME280;45801;51.810;19.444;2023-03-13T13:35:24;97807.09;;;9.98;72.11
59939;BME280;45801;51.810;19.444;2023-03-13T13:37:52;97801.05;;;9.94;71.96
59939;BME280;45801;51.810;19.444;2023-03-13T13:40:37;97808.08;;;9.95;71.78
59939;BME280;45801;51.810;19.444;2023-03-13T13:43:04;97798.60;;;9.94;72.02
59939;BME280;45801;51.810;19.444;2023-03-13T13:45:37;97805.39;;;9.93;72.19
59939;BME280;45801;51.810;19.444;2023-03-13T13:48:26;97803.98;;;9.92;72.31
59939;BME280;45801;51.810;19.444;2023-03-13T13:53:57;97803.29;;;10.00;71.96
59939;BME280;45801;51.810;19.444;2023-03-13T14:01:25;97803.39;;;9.97;72.23
59939;BME280;45801;51.810;19.444;2023-03-13T14:03:53;97804.31;;;9.92;72.29
59939;BME280;45801;51.810;19.444;2023-03-13T14:06:29;97799.84;;;9.87;72.23
59939;BME280;45801;51.810;19.444;2023-03-13T14:08:59;97798.02;;;9.91;72.10
59939;BME280;45801;51.810;19.444;2023-03-13T14:11:37;97795.70;;;9.90;72.07
59939;BME280;45801;51.810;19.444;2023-03-13T14:14:15;97791.91;;;9.84;71.83
59939;BME280;45801;51.810;19.444;2023-03-13T14:16:51;97786.32;;;9.84;71.63
59939;BME280;45801;51.810;19.444;2023-03-13T14:19:24;97792.37;;;9.81;71.79
59939;BME280;45801;51.810;19.444;2023-03-13T14:21:57;97790.63;;;9.82;71.64
59939;BME280;45801;51.810;19.444;2023-03-13T14:24:24;97782.73;;;9.81;71.65
59939;BME280;45801;51.810;19.444;2023-03-13T14:26:51;97780.46;;;9.81;71.73
59939;BME280;45801;51.810;19.444;2023-03-13T14:29:18;97779.49;;;9.76;71.75
59939;BME280;45801;51.810;19.444;2023-03-13T14:31:55;97770.63;;;9.71;72.13
59939;BME280;45801;51.810;19.444;2023-03-13T14:34:23;97765.52;;;9.70;72.44